Time;durP1;ratioP1;P1;durP2;ratioP2;P2;SDS_P1;SDS_P2;PMS_P1;PMS_P2;Temp;Humidity;BMP_temperature;BMP_pressure;BME280_temperature;BME280_humidity;BME280_pressure;Samples;Min_cycle;Max_cycle;Signal;HPM_P1;HPM_P2
2022/04/26 03:36:12;;;;;;;11.15;8.15;;;;;;;2.75;80.65;101168.16;1703891;82;21155;-86
2022/04/26 03:38:48;;;;;;;12.68;9.30;;;;;;;2.81;80.63;101168.54;1747497;80;21240;-86
2022/04/26 03:41:14;;;;;;;10.25;7.83;;;;;;;2.88;80.57;101164.23;1755111;80;21066;-87
2022/04/26 03:43:41;;;;;;;16.32;8.90;;;;;;;2.99;80.66;101167.50;1757331;80;22854;-87
2022/04/26 03:46:08;;;;;;;15.90;8.33;;;;;;;3.50;81.68;101164.98;1721712;82;21222;-86
2022/04/26 03:48:35;;;;;;;10.60;7.47;;;;;;;4.54;82.56;101167.91;1697100;81;21161;-86
2022/04/26 03:51:04;;;;;;;10.80;7.20;;;;;;;5.61;82.05;101168.90;1687465;83;21125;-86
2022/04/26 03:53:31;;;;;;;12.33;6.62;;;;;;;6.65;81.21;101159.64;1709610;82;21075;-87
2022/04/26 03:55:58;;;;;;;10.60;7.10;;;;;;;7.58;79.70;101165.60;1721962;82;21890;-92
2022/04/26 03:58:28;;;;;;;12.85;7.28;;;;;;;8.44;78.81;101157.86;1717548;82;21102;-92
2022/04/26 04:00:56;;;;;;;11.75;6.85;;;;;;;9.26;77.88;101157.95;1713648;82;21073;-90
2022/04/26 04:03:23;;;;;;;7.67;6.55;;;;;;;10.05;76.39;101159.86;1725307;81;21162;-91
2022/04/26 04:05:50;;;;;;;7.80;5.87;;;;;;;10.78;74.95;101159.16;1718121;81;21116;-89
2022/04/26 04:08:17;;;;;;;11.90;6.87;;;;;;;11.50;74.03;101160.36;1717422;82;23161;-90
2022/04/26 04:10:44;;;;;;;8.58;6.17;;;;;;;12.22;72.78;101158.78;1708462;83;21155;-89
2022/04/26 04:13:10;;;;;;;10.85;5.80;;;;;;;12.88;71.77;101155.47;1669627;84;21521;-89
2022/04/26 04:15:38;;;;;;;7.65;5.55;;;;;;;13.51;70.29;101163.39;1685595;82;21150;-88
2022/04/26 04:19:17;;;;;;;8.38;5.25;;;;;;;14.07;69.03;101163.55;1673983;84;21181;-90
2022/04/26 04:20:34;;;;;;;8.05;5.83;;;;;;;14.60;68.38;101153.83;1695488;82;21775;-92
2022/04/26 04:23:01;;;;;;;8.53;6.17;;;;;;;15.32;67.14;101163.66;1719116;82;21099;-94
2022/04/26 04:25:28;;;;;;;8.45;5.58;;;;;;;15.96;66.29;101172.34;1689461;83;21095;-94
2022/04/26 04:27:58;;;;;;;5.47;4.87;;;;;;;16.58;65.08;101172.42;1679121;83;21063;-94
2022/04/26 04:30:27;;;;;;;5.78;5.03;;;;;;;16.97;63.68;101157.59;1663576;81;21183;-93
2022/04/26 04:32:58;;;;;;;6.67;5.08;;;;;;;17.55;62.41;101176.49;1674270;83;21838;-96
2022/04/26 04:35:25;;;;;;;5.87;5.05;;;;;;;18.00;61.44;101173.93;1692610;82;21555;-96
2022/04/26 04:37:52;;;;;;;6.00;5.40;;;;;;;18.53;61.01;101174.85;1737523;79;21610;-85
2022/04/26 04:40:20;;;;;;;5.85;5.08;;;;;;;19.22;60.15;101175.59;1722968;80;21554;-87
2022/04/26 04:42:47;;;;;;;6.80;5.05;;;;;;;19.92;59.20;101176.14;1713309;82;21647;-87
2022/04/26 04:45:17;;;;;;;6.50;5.30;;;;;;;20.57;58.32;101184.97;1692854;83;21741;-87
2022/04/26 04:47:44;;;;;;;8.15;5.65;;;;;;;21.20;57.20;101178.11;1758289;80;21392;-87
2022/04/26 04:50:15;;;;;;;9.55;5.92;;;;;;;21.68;56.11;101177.95;1698400;82;21130;-86
2022/04/26 04:52:45;;;;;;;6.28;5.50;;;;;;;22.27;54.87;101183.78;1705850;83;21051;-87
2022/04/26 04:55:13;;;;;;;6.70;5.60;;;;;;;22.69;53.85;101190.20;1704463;82;21071;-87
2022/04/26 04:57:40;;;;;;;34.88;9.38;;;;;;;23.00;52.93;101184.24;1706427;82;21802;-87
2022/04/26 05:00:11;;;;;;;21.00;7.25;;;;;;;23.57;52.27;101184.89;1712269;82;21359;-89
2022/04/26 05:02:37;;;;;;;11.78;6.10;;;;;;;24.00;51.37;101188.85;1694013;82;20998;-88
2022/04/26 05:05:05;;;;;;;7.00;5.22;;;;;;;24.18;49.68;101161.11;1685720;82;20990;-87
2022/04/26 05:07:31;;;;;;;10.48;6.10;;;;;;;24.47;49.07;101183.69;1700056;81;21161;-89
2022/04/26 05:09:59;;;;;;;9.30;6.05;;;;;;;24.68;48.17;101180.92;1717880;78;21998;-88
2022/04/26 05:12:26;;;;;;;11.03;6.30;;;;;;;24.93;47.62;101178.46;1700368;82;21061;-89
2022/04/26 05:14:55;;;;;;;10.60;5.78;;;;;;;24.95;46.55;101161.32;1701310;82;21342;-88
2022/04/26 05:17:22;;;;;;;6.65;5.55;;;;;;;25.16;46.21;101173.28;1695183;83;21343;-89
2022/04/26 05:19:51;;;;;;;6.80;5.72;;;;;;;25.37;45.18;101178.53;1693137;83;21142;-88
2022/04/26 05:22:17;;;;;;;7.87;6.22;;;;;;;25.27;44.41;101180.22;1694424;83;21875;-88
2022/04/26 05:24:58;;;;;;;7.97;5.92;;;;;;;24.31;43.01;101179.17;1684289;83;21115;-88
2022/04/26 05:27:30;;;;;;;6.17;5.58;;;;;;;22.79;41.84;101179.30;1705178;82;21087;-88
2022/04/26 05:29:57;;;;;;;7.55;5.58;;;;;;;20.84;41.68;101184.31;1760217;80;21070;-88
2022/04/26 05:32:27;;;;;;;6.72;5.87;;;;;;;19.25;42.23;101192.49;1766721;80;21207;-88
2022/04/26 05:34:59;;;;;;;7.03;5.75;;;;;;;18.03;42.71;101192.14;1746399;80;22695;-88
2022/04/26 05:37:27;;;;;;;6.03;5.40;;;;;;;16.98;43.34;101201.49;1754078;80;21084;-88
2022/04/26 05:39:55;;;;;;;7.55;5.30;;;;;;;15.97;43.99;101205.52;1753242;80;21097;-87
2022/04/26 05:42:22;;;;;;;12.40;5.55;;;;;;;14.58;45.34;101200.16;1721891;80;21888;-88
2022/04/26 05:44:48;;;;;;;6.28;4.97;;;;;;;14.58;45.34;101200.16;1735433;80;21104;-88
2022/04/26 05:47:15;;;;;;;6.85;5.47;;;;;;;14.04;45.98;101212.89;1755770;80;21769;-87
2022/04/26 05:49:47;;;;;;;6.65;5.45;;;;;;;13.52;46.53;101207.07;1748336;80;21725;-87
2022/04/26 05:52:14;;;;;;;8.18;5.92;;;;;;;13.17;47.05;101211.58;1748647;80;21591;-88
2022/04/26 05:54:40;;;;;;;5.92;4.47;;;;;;;12.89;47.75;101210.95;1737644;80;21122;-88
2022/04/26 05:57:07;;;;;;;7.22;4.35;;;;;;;12.66;47.49;101210.87;1742387;80;21082;-87
2022/04/26 05:59:34;;;;;;;7.97;4.22;;;;;;;12.20;47.48;101215.88;1704581;82;22054;-87
2022/04/26 06:02:01;;;;;;;6.72;4.92;;;;;;;11.87;47.83;101218.08;1699353;81;21034;-87
2022/04/26 06:04:29;;;;;;;5.20;3.85;;;;;;;11.50;48.35;101216.16;1707042;82;21061;-87
2022/04/26 06:06:56;;;;;;;7.70;4.05;;;;;;;11.19;48.03;101225.81;1698515;82;21890;-87
2022/04/26 06:09:25;;;;;;;7.12;3.95;;;;;;;10.76;48.38;101223.16;1680601;83;21630;-88
2022/04/26 06:11:52;;;;;;;5.08;3.67;;;;;;;10.57;48.97;101221.69;1688649;83;22147;-88
2022/04/26 06:14:19;;;;;;;5.58;4.10;;;;;;;10.39;49.11;101225.47;1695246;81;21648;-87
2022/04/26 06:16:46;;;;;;;8.15;4.50;;;;;;;10.19;49.29;101229.13;1699765;83;21550;-87
2022/04/26 06:19:12;;;;;;;10.08;4.75;;;;;;;9.96;49.46;101230.98;1687494;83;21228;-87
2022/04/26 06:21:39;;;;;;;32.30;16.67;;;;;;;9.79;49.97;101227.32;1680530;83;21539;-87
2022/04/26 06:24:09;;;;;;;16.37;12.30;;;;;;;9.77;50.48;101233.37;1699590;82;21842;-87
2022/04/26 06:26:38;;;;;;;10.03;5.00;;;;;;;9.69;50.52;101219.95;1672022;83;21110;-87
2022/04/26 06:29:07;;;;;;;8.70;5.15;;;;;;;9.67;50.47;101228.21;1727913;82;21704;-88
2022/04/26 06:31:33;;;;;;;9.35;4.78;;;;;;;9.57;50.86;101230.01;1702218;83;21135;-87
2022/04/26 06:34:00;;;;;;;7.47;4.28;;;;;;;9.49;50.93;101224.48;1690671;82;21561;-87
2022/04/26 06:36:27;;;;;;;12.35;5.15;;;;;;;9.42;50.89;101229.94;1694063;82;22189;-87
2022/04/26 06:38:53;;;;;;;6.87;4.62;;;;;;;9.11;50.99;101180.17;1694355;83;21089;-87
2022/04/26 06:41:22;;;;;;;6.10;4.55;;;;;;;9.36;51.18;101231.00;1686985;83;21096;-87
2022/04/26 06:43:54;;;;;;;7.17;4.30;;;;;;;9.37;51.22;101232.80;1680619;83;21071;-87
2022/04/26 06:46:20;;;;;;;10.03;6.33;;;;;;;9.32;51.24;101225.16;1676325;83;21181;-87
2022/04/26 06:48:57;;;;;;;8.43;4.30;;;;;;;9.36;51.32;101234.94;1746716;80;21671;-87
2022/04/26 06:51:23;;;;;;;5.78;3.80;;;;;;;9.34;51.12;101240.56;1739292;80;21612;-86
2022/04/26 06:54:02;;;;;;;6.75;4.30;;;;;;;9.36;51.15;101236.69;1713735;82;21094;-86
2022/04/26 06:56:29;;;;;;;6.58;4.55;;;;;;;9.36;51.08;101238.88;1713551;81;21081;-86
2022/04/26 06:58:57;;;;;;;6.33;4.47;;;;;;;9.36;51.07;101231.00;1707848;82;21180;-86
2022/04/26 07:01:23;;;;;;;5.83;3.80;;;;;;;9.42;51.13;101238.22;1709690;82;22605;-87
2022/04/26 07:03:50;;;;;;;8.60;4.87;;;;;;;9.44;51.11;101237.45;1692886;83;21172;-86
2022/04/26 07:06:17;;;;;;;10.50;4.85;;;;;;;9.47;51.09;101242.81;1682533;83;21182;-87
2022/04/26 07:08:43;;;;;;;5.65;4.10;;;;;;;9.47;50.85;101248.48;1703058;82;21091;-86
2022/04/26 07:11:10;;;;;;;11.30;4.62;;;;;;;9.47;50.90;101246.75;1708193;83;21146;-87
2022/04/26 07:13:37;;;;;;;7.47;4.22;;;;;;;9.50;50.99;101251.25;1664597;82;21841;-87
2022/04/26 07:16:05;;;;;;;9.60;4.92;;;;;;;9.53;51.06;101252.26;1709245;82;21478;-87
2022/04/26 07:18:34;;;;;;;7.40;3.55;;;;;;;9.59;50.99;101248.96;1713787;82;21118;-86
2022/04/26 07:21:01;;;;;;;7.30;3.33;;;;;;;9.61;50.69;101247.28;1701929;81;21113;-87
2022/04/26 07:23:28;;;;;;;4.55;2.90;;;;;;;9.66;50.14;101250.95;1677906;83;21959;-87
2022/04/26 07:25:55;;;;;;;4.58;2.72;;;;;;;9.69;49.52;101258.07;1675132;83;21858;-87
2022/04/26 07:28:23;;;;;;;3.95;2.35;;;;;;;9.73;49.31;101261.28;1713051;82;21058;-87
2022/04/26 07:30:49;;;;;;;6.30;2.55;;;;;;;9.76;48.64;101261.80;1691087;82;21169;-87
2022/04/26 07:36:03;;;;;;;3.85;2.98;;;;;;;9.82;47.99;101273.45;1701497;82;21001;-87
2022/04/26 07:38:29;;;;;;;4.28;2.95;;;;;;;9.88;47.99;101274.98;1744483;80;22638;-86
2022/04/26 07:40:56;;;;;;;8.40;3.15;;;;;;;9.92;48.16;101278.19;1752663;79;21137;-86
2022/04/26 07:43:23;;;;;;;5.90;2.50;;;;;;;9.95;47.80;101282.69;1745364;80;21109;-85
2022/04/26 07:45:50;;;;;;;3.65;2.52;;;;;;;9.96;46.95;101283.57;1761425;80;21154;-86
2022/04/26 07:48:17;;;;;;;6.75;2.20;;;;;;;9.96;46.53;101292.77;1749720;80;21045;-86
2022/04/26 07:50:47;;;;;;;4.30;2.45;;;;;;;9.95;46.35;101289.66;1748865;80;21838;-86
2022/04/26 07:53:14;;;;;;;3.70;2.35;;;;;;;9.99;46.04;101295.09;1757648;80;20989;-87
2022/04/26 07:55:41;;;;;;;7.25;2.30;;;;;;;10.02;46.25;101295.22;1759621;80;21217;-87
2022/04/26 07:58:10;;;;;;;5.53;2.95;;;;;;;10.07;46.26;101296.26;1742709;80;21646;-86
2022/04/26 08:00:39;;;;;;;4.33;2.72;;;;;;;10.11;46.26;101297.27;1719988;80;21670;-86
2022/04/26 08:03:06;;;;;;;5.75;2.55;;;;;;;10.11;45.98;101301.20;1758926;80;21813;-87
2022/04/26 08:05:33;;;;;;;3.45;2.12;;;;;;;10.10;45.50;101300.75;1734716;80;21659;-86
2022/04/26 08:08:03;;;;;;;5.55;2.42;;;;;;;10.12;45.64;101303.91;1751910;80;21153;-87
2022/04/26 08:10:32;;;;;;;4.50;2.15;;;;;;;10.15;45.48;101300.91;1752965;80;21100;-86
2022/04/26 08:12:58;;;;;;;6.50;2.47;;;;;;;10.15;45.21;101307.05;1748866;80;21553;-87
2022/04/26 08:15:25;;;;;;;2.95;2.15;;;;;;;10.17;45.14;101310.63;1755415;80;21810;-87
2022/04/26 08:17:52;;;;;;;6.20;2.30;;;;;;;10.16;45.20;101313.23;1755995;80;21186;-87
2022/04/26 08:20:19;;;;;;;7.00;2.40;;;;;;;10.16;44.80;101314.55;1750428;80;21774;-86
2022/04/26 08:22:46;;;;;;;5.00;2.33;;;;;;;10.19;45.17;101312.92;1749948;80;21603;-87
2022/04/26 08:28:01;;;;;;;4.45;2.05;;;;;;;10.25;44.93;101314.45;1746700;80;21845;-87
2022/04/26 08:30:28;;;;;;;9.50;2.50;;;;;;;10.26;44.96;101303.48;1740504;80;21129;-87
2022/04/26 08:32:55;;;;;;;6.70;2.33;;;;;;;10.35;44.90;101313.06;1738576;80;21058;-88
2022/04/26 08:35:24;;;;;;;2.87;2.12;;;;;;;10.28;44.75;101298.74;1738101;80;21185;-86
2022/04/26 08:37:50;;;;;;;6.75;2.52;;;;;;;10.43;44.69;101314.64;1755274;80;21085;-86
2022/04/26 08:40:17;;;;;;;6.05;2.65;;;;;;;10.46;44.78;101318.27;1760805;80;23221;-86
2022/04/26 08:42:46;;;;;;;3.75;2.52;;;;;;;10.52;44.18;101315.39;1741649;80;21153;-87
2022/04/26 08:45:15;;;;;;;7.60;2.40;;;;;;;10.55;43.92;101316.39;1717464;80;21120;-87
2022/04/26 08:53:21;;;;;;;3.08;2.08;;;;;;;10.61;43.94;101320.53;1756280;80;23072;-86
2022/04/26 08:55:51;;;;;;;9.63;2.50;;;;;;;10.65;43.81;101324.17;1742452;80;21149;-86
2022/04/26 08:58:21;;;;;;;7.25;2.37;;;;;;;10.74;43.60;101328.86;1751545;80;21018;-86
2022/04/26 09:01:16;;;;;;;5.28;1.90;;;;;;;10.78;42.92;101329.44;1708092;82;21161;-86
2022/04/26 09:03:58;;;;;;;31.25;5.37;;;;;;;10.78;42.78;101329.44;1690345;82;21068;-86
2022/04/26 09:06:39;;;;;;;5.33;2.50;;;;;;;10.79;42.94;101328.57;1714102;81;23409;-86
2022/04/26 09:09:18;;;;;;;4.45;2.37;;;;;;;10.82;42.89;101333.52;1698202;82;21095;-86
2022/04/26 09:11:45;;;;;;;5.17;2.30;;;;;;;10.85;42.89;101331.00;1666923;83;21071;-87
2022/04/26 09:14:34;;;;;;;5.10;2.02;;;;;;;10.91;42.35;101335.58;1764071;80;21173;-87
2022/04/26 09:17:10;;;;;;;3.50;2.00;;;;;;;10.95;42.20;101340.09;1756042;80;21543;-87
2022/04/26 09:19:45;;;;;;;3.25;1.80;;;;;;;10.97;42.25;101337.09;1752789;80;22483;-86
2022/04/26 09:22:19;;;;;;;2.37;1.65;;;;;;;11.03;42.35;101339.02;1738954;80;21081;-87
2022/04/26 09:24:59;;;;;;;2.80;1.87;;;;;;;11.05;42.23;101344.80;1755086;80;21049;-86
2022/04/26 09:27:26;;;;;;;4.95;2.17;;;;;;;11.06;42.00;101341.34;1758169;80;21106;-86
2022/04/26 09:29:55;;;;;;;4.72;2.10;;;;;;;11.09;41.91;101337.50;1747200;80;21082;-86
2022/04/26 09:32:23;;;;;;;4.03;1.95;;;;;;;11.15;42.06;101345.10;1759890;80;21803;-87
2022/04/26 09:34:50;;;;;;;2.30;1.65;;;;;;;11.18;41.91;101335.56;1752981;80;21176;-87
2022/04/26 09:37:17;;;;;;;8.95;1.95;;;;;;;11.19;41.67;101336.05;1748562;80;21121;-87
2022/04/26 09:40:05;;;;;;;1.72;1.60;;;;;;;11.21;41.83;101330.40;1730537;80;21084;-88
2022/04/26 09:42:36;;;;;;;3.47;2.08;;;;;;;11.29;41.81;101339.42;1748269;80;21070;-87
2022/04/26 09:45:15;;;;;;;4.42;1.85;;;;;;;11.36;41.56;101335.69;1731672;81;21718;-87
2022/04/26 09:47:41;;;;;;;3.25;2.08;;;;;;;11.37;41.57;101333.08;1743022;80;21359;-87
2022/04/26 09:50:14;;;;;;;3.72;1.67;;;;;;;11.45;41.44;101341.25;1737932;80;21189;-86
2022/04/26 09:52:41;;;;;;;3.53;1.80;;;;;;;11.50;41.56;101333.03;1742437;80;21053;-86
2022/04/26 09:55:10;;;;;;;2.70;1.80;;;;;;;11.46;41.57;101321.93;1744539;80;22114;-86
2022/04/26 09:57:38;;;;;;;4.78;1.80;;;;;;;11.59;41.35;101337.27;1750368;80;21801;-87
2022/04/26 10:00:10;;;;;;;2.95;1.87;;;;;;;11.60;41.33;101338.16;1739142;80;21480;-87
2022/04/26 10:02:44;;;;;;;2.70;1.98;;;;;;;11.66;41.34;101339.25;1702203;80;21062;-87
2022/04/26 10:05:11;;;;;;;;;;;;;;;11.72;41.12;101341.17;1756100;80;21519;-87
2022/04/26 10:07:43;;;;;;;4.83;1.75;;;;;;;11.74;40.79;101346.50;1735036;80;20600;-87
2022/04/26 10:10:09;;;;;;;5.22;3.70;;;;;;;11.72;40.65;101345.56;1759994;80;21835;-87
2022/04/26 10:12:37;;;;;;;2.27;1.72;;;;;;;11.72;40.69;101340.29;1732665;80;21109;-86
2022/04/26 10:15:05;;;;;;;4.25;2.10;;;;;;;11.75;40.63;101349.59;1737502;80;21125;-86
2022/04/26 10:17:34;;;;;;;5.72;1.60;;;;;;;11.74;40.39;101346.50;1731708;80;21109;-86
2022/04/26 10:20:01;;;;;;;3.20;1.65;;;;;;;11.76;40.30;101342.16;1721736;81;21152;-86
2022/04/26 10:22:58;;;;;;;2.50;1.45;;;;;;;11.78;40.16;101344.42;1727384;80;22458;-86
2022/04/26 10:25:27;;;;;;;1.82;1.25;;;;;;;11.83;40.04;101341.06;1749723;80;21124;-87
2022/04/26 10:28:23;;;;;;;1.67;1.37;;;;;;;11.88;39.77;101343.86;1706889;81;21616;-87
2022/04/26 10:30:57;;;;;;;2.12;1.62;;;;;;;11.93;39.93;101345.33;1737843;81;21684;-87
2022/04/26 10:33:40;;;;;;;;;;;;;;;11.98;39.89;101342.41;1735535;80;21253;-86
2022/04/26 10:36:31;;;;;;;3.60;1.75;;;;;;;12.04;40.09;101337.30;1736500;80;22586;-86
2022/04/26 10:39:15;;;;;;;4.33;1.87;;;;;;;12.08;40.13;101343.13;1721332;81;21161;-86
2022/04/26 10:41:43;;;;;;;2.80;1.87;;;;;;;12.05;40.23;101342.63;1746091;80;21672;-86
2022/04/26 10:44:22;;;;;;;4.20;2.52;;;;;;;12.08;40.14;101343.13;1742409;80;21640;-87
2022/04/26 10:47:02;;;;;;;3.75;2.62;;;;;;;12.10;40.34;101348.02;1741624;80;21057;-86
2022/04/26 10:49:40;;;;;;;2.95;2.12;;;;;;;12.17;40.28;101343.38;1736019;80;21825;-86
2022/04/26 10:52:19;;;;;;;2.75;1.95;;;;;;;12.19;40.36;101345.64;1735952;80;21078;-87
2022/04/26 10:54:55;;;;;;;2.55;1.67;;;;;;;12.16;40.27;101337.66;1736618;81;21207;-86
2022/04/26 10:57:30;;;;;;;5.25;2.00;;;;;;;12.22;40.40;101346.17;1723605;82;21132;-86
2022/04/26 11:00:00;;;;;;;4.53;1.95;;;;;;;12.23;40.20;101347.50;1729986;80;21057;-87
2022/04/26 11:02:41;;;;;;;2.53;1.70;;;;;;;12.26;40.22;101345.39;1659257;82;22024;-87
2022/04/26 11:05:16;;;;;;;4.03;1.60;;;;;;;12.31;40.23;101337.59;1696579;82;21815;-87
2022/04/26 11:07:45;;;;;;;3.60;1.72;;;;;;;12.22;40.08;101318.45;1659758;83;21086;-86
2022/04/26 11:10:15;;;;;;;2.77;1.95;;;;;;;12.42;40.25;101334.81;1701170;83;21190;-86
2022/04/26 11:12:43;;;;;;;4.60;1.95;;;;;;;12.45;39.73;101341.50;1756463;80;21079;-86
2022/04/26 11:15:19;;;;;;;4.53;1.90;;;;;;;12.43;39.66;101333.97;1754470;80;21669;-85
2022/04/26 11:17:47;;;;;;;4.42;1.98;;;;;;;12.43;39.46;101340.57;1724742;82;21204;-86
2022/04/26 11:20:17;;;;;;;3.08;2.45;;;;;;;12.43;39.74;101340.14;1663472;83;21169;-86
2022/04/26 11:22:50;;;;;;;2.75;1.92;;;;;;;12.52;39.78;101342.55;1697601;82;21066;-85
2022/04/26 11:28:09;;;;;;;6.33;1.85;;;;;;;12.63;39.42;101348.59;1692337;82;22045;-86
2022/04/26 11:30:47;;;;;;;2.20;1.60;;;;;;;12.62;39.13;101348.55;1683936;83;21103;-86
2022/04/26 11:33:22;;;;;;;2.58;1.77;;;;;;;12.61;39.23;101346.34;1693406;83;21583;-87
2022/04/26 11:36:01;;;;;;;4.92;2.00;;;;;;;12.66;39.19;101345.56;1687513;83;21209;-86
2022/04/26 11:38:28;;;;;;;3.17;2.15;;;;;;;12.67;39.05;101352.22;1709729;82;21098;-87
2022/04/26 11:41:00;;;;;;;3.55;2.08;;;;;;;12.69;39.01;101349.59;1704660;83;21828;-87
2022/04/26 11:43:31;;;;;;;4.33;2.25;;;;;;;12.73;39.07;101350.16;1687090;82;21232;-88
2022/04/26 11:45:58;;;;;;;5.33;2.27;;;;;;;12.80;39.15;101359.60;1689101;83;21604;-88
2022/04/26 11:48:34;;;;;;;6.60;2.37;;;;;;;12.81;38.90;101355.20;1716382;83;21560;-87
2022/04/26 11:51:01;;;;;;;5.72;2.40;;;;;;;12.86;38.99;101350.02;1680200;84;21056;-86
2022/04/26 11:53:32;;;;;;;2.00;1.75;;;;;;;12.91;38.99;101347.95;1678087;82;22820;-87
2022/04/26 11:56:02;;;;;;;4.90;1.75;;;;;;;12.94;38.95;101352.01;1692344;83;21280;-86
2022/04/26 11:58:36;;;;;;;6.20;2.22;;;;;;;12.95;38.90;101345.89;1691175;82;21157;-85
2022/04/26 12:01:12;;;;;;;2.62;2.17;;;;;;;12.98;38.95;101345.05;1704740;83;21093;-87
2022/04/26 12:03:51;;;;;;;5.33;2.30;;;;;;;13.03;38.87;101346.95;1720373;82;21200;-86
2022/04/26 12:06:27;;;;;;;2.62;1.87;;;;;;;13.10;38.90;101346.69;1678789;84;21972;-88
2022/04/26 12:08:57;;;;;;;2.87;1.85;;;;;;;13.17;39.04;101346.39;1684030;83;21635;-86
2022/04/26 12:11:38;;;;;;;3.87;2.30;;;;;;;13.25;39.03;101343.92;1674241;84;21739;-87
2022/04/26 12:14:08;;;;;;;4.95;2.08;;;;;;;13.28;38.90;101339.61;1699577;83;21285;-87
2022/04/26 12:16:55;;;;;;;3.02;2.12;;;;;;;13.33;38.99;101340.65;1683958;83;21236;-86
2022/04/26 12:19:38;;;;;;;2.77;2.10;;;;;;;13.39;38.81;101343.86;1759545;80;22744;-85
2022/04/26 12:22:11;;;;;;;2.60;2.25;;;;;;;13.46;38.70;101340.91;1726451;82;21075;-86
2022/04/26 12:24:51;;;;;;;3.12;2.22;;;;;;;13.42;38.58;101341.30;1720462;81;21069;-85
2022/04/26 12:27:27;;;;;;;4.50;2.02;;;;;;;13.41;38.54;101336.41;1724624;81;21144;-87
2022/04/26 12:29:51;;;;;;;2.98;2.08;;;;;;;13.38;38.57;101339.02;1724332;80;21142;-87
2022/04/26 12:32:19;;;;;;;2.85;2.08;;;;;;;13.37;38.54;101337.21;1735200;80;21788;-87
2022/04/26 12:34:52;;;;;;;3.85;2.50;;;;;;;13.36;38.46;101345.10;1728380;80;21136;-87
2022/04/26 12:37:30;;;;;;;2.67;2.02;;;;;;;13.34;38.58;101340.21;1756110;80;21086;-87
2022/04/26 12:40:01;;;;;;;2.37;2.10;;;;;;;13.39;38.29;101337.25;1758808;80;21132;-87
2022/04/26 12:42:34;;;;;;;3.10;2.10;;;;;;;13.40;38.53;101336.38;1739997;80;21504;-87
2022/04/26 12:45:04;;;;;;;5.17;2.10;;;;;;;13.46;38.66;101338.27;1715004;80;23146;-87
2022/04/26 12:50:29;;;;;;;3.80;1.98;;;;;;;13.52;38.66;101337.98;1750301;80;21213;-86
2022/04/26 12:53:02;;;;;;;5.47;2.08;;;;;;;13.51;38.30;101337.95;1749482;80;21093;-86
2022/04/26 12:55:41;;;;;;;2.35;1.75;;;;;;;13.50;38.50;101333.09;1750162;80;20956;-87
2022/04/26 12:58:17;;;;;;;2.77;2.10;;;;;;;13.55;38.51;101337.16;1740054;79;21781;-88
2022/04/26 13:00:50;;;;;;;4.03;1.92;;;;;;;13.54;38.28;101341.56;1719588;81;21084;-88
2022/04/26 13:03:21;;;;;;;1.87;1.77;;;;;;;13.52;38.37;101340.63;1769078;80;21058;-86
2022/04/26 13:06:10;;;;;;;2.50;1.72;;;;;;;13.56;38.10;101350.42;1748880;79;21239;-86
2022/04/26 13:08:39;;;;;;;4.12;2.20;;;;;;;13.36;38.18;101306.77;1742521;80;21543;-86
2022/04/26 13:11:06;;;;;;;12.93;10.38;;;;;;;13.55;38.30;101334.10;1752219;80;21815;-86
2022/04/26 13:13:36;;;;;;;8.80;5.45;;;;;;;13.60;38.42;101341.69;1724249;80;21937;-86
2022/04/26 13:16:05;;;;;;;5.62;4.22;;;;;;;13.64;38.58;101334.71;1759266;80;21165;-87
2022/04/26 13:18:32;;;;;;;3.40;2.67;;;;;;;13.70;38.59;101336.19;1742156;80;21520;-87
2022/04/26 13:20:58;;;;;;;2.70;2.08;;;;;;;13.62;38.36;101327.17;1751712;80;21665;-87
2022/04/26 13:23:26;;;;;;;2.55;2.00;;;;;;;13.67;38.09;101340.08;1751278;80;21787;-87
2022/04/26 13:25:53;;;;;;;2.10;1.87;;;;;;;13.64;38.12;101345.30;1746355;80;21120;-87
2022/04/26 13:28:26;;;;;;;3.33;2.40;;;;;;;13.55;38.26;101334.10;1746186;80;21085;-87
2022/04/26 13:31:00;;;;;;;3.47;2.70;;;;;;;13.55;38.34;101334.51;1723201;80;21097;-86
2022/04/26 13:33:27;;;;;;;5.37;2.67;;;;;;;13.58;38.38;101330.62;1713422;81;21737;-86
2022/04/26 13:35:53;;;;;;;3.75;2.62;;;;;;;13.64;38.36;101332.06;1734115;81;21783;-86
2022/04/26 13:38:21;;;;;;;3.00;2.30;;;;;;;13.69;38.20;101337.03;1754647;80;21177;-87
2022/04/26 13:40:48;;;;;;;4.78;2.30;;;;;;;13.70;38.15;101337.92;1746270;80;21051;-86
2022/04/26 13:43:23;;;;;;;5.37;2.50;;;;;;;13.72;38.32;101334.47;1732706;81;21114;-87
2022/04/26 13:45:47;;;;;;;2.35;1.92;;;;;;;13.75;38.01;101337.16;1726739;81;21149;-86
2022/04/26 13:48:14;;;;;;;3.15;2.00;;;;;;;13.76;38.21;101341.61;1724635;81;21787;-86
2022/04/26 13:50:41;;;;;;;3.20;2.08;;;;;;;13.82;38.11;101350.55;1732297;80;22212;-86
2022/04/26 13:53:08;;;;;;;2.55;2.02;;;;;;;13.77;38.07;101350.42;1746350;80;21297;-86
2022/04/26 13:55:35;;;;;;;3.15;1.92;;;;;;;13.73;37.87;101349.91;1742795;80;21131;-87
2022/04/26 13:58:08;;;;;;;2.37;2.17;;;;;;;13.70;37.82;101354.71;1745983;80;21403;-86
2022/04/26 14:00:34;;;;;;;4.17;2.12;;;;;;;13.69;37.99;101352.03;1735900;80;21885;-87
2022/04/26 14:03:01;;;;;;;3.62;2.10;;;;;;;13.71;38.10;101352.95;1756529;80;21124;-88
2022/04/26 14:05:29;;;;;;;3.30;2.10;;;;;;;13.73;38.16;101352.11;1759057;80;21070;-87
2022/04/26 14:07:56;;;;;;;2.40;1.72;;;;;;;13.75;38.10;101354.36;1743185;80;21119;-87
2022/04/26 14:10:23;;;;;;;5.10;2.20;;;;;;;13.74;38.09;101358.28;1758888;80;21061;-87
2022/04/26 14:12:50;;;;;;;2.42;1.70;;;;;;;13.68;38.00;101366.09;1748123;80;23087;-87
2022/04/26 14:23:35;;;;;;;3.85;2.10;;;;;;;13.40;38.03;101372.08;1731230;80;21164;-87
2022/04/26 14:26:03;;;;;;;3.25;2.22;;;;;;;13.39;37.83;101390.14;1759448;80;21825;-86
2022/04/26 14:28:30;;;;;;;5.65;2.42;;;;;;;13.31;38.01;101379.38;1740033;80;21058;-87
2022/04/26 14:30:57;;;;;;;5.50;2.33;;;;;;;13.30;38.17;101382.87;1744327;80;21633;-87
2022/04/26 14:33:24;;;;;;;3.77;2.08;;;;;;;13.28;38.20;101385.87;1730729;79;21019;-87
2022/04/26 14:35:51;;;;;;;5.15;1.95;;;;;;;13.22;38.14;101383.09;1731596;81;21097;-87
2022/04/26 14:38:18;;;;;;;4.42;1.85;;;;;;;13.13;38.05;101385.06;1758368;80;21729;-86
2022/04/26 14:40:45;;;;;;;3.25;1.98;;;;;;;13.05;37.96;101377.39;1742654;80;21538;-86
2022/04/26 14:43:14;;;;;;;3.70;2.15;;;;;;;12.96;38.16;101378.48;1754107;80;21157;-87
2022/04/26 14:45:45;;;;;;;2.77;2.02;;;;;;;12.96;38.33;101379.80;1735233;80;21526;-87
2022/04/26 14:48:14;;;;;;;5.35;2.00;;;;;;;13.01;38.48;101383.02;1732899;80;21226;-86
2022/04/26 14:50:41;;;;;;;4.60;1.87;;;;;;;13.04;38.40;101390.13;1723604;81;21985;-86
2022/04/26 14:53:08;;;;;;;2.52;1.40;;;;;;;13.00;38.30;101386.51;1738790;80;21093;-86
2022/04/26 14:55:36;;;;;;;3.87;1.72;;;;;;;12.87;38.29;101373.84;1741561;80;21082;-86
2022/04/26 14:58:03;;;;;;;2.10;1.67;;;;;;;12.90;38.07;101385.82;1751392;80;21317;-87
2022/04/26 15:00:35;;;;;;;3.12;1.60;;;;;;;12.86;37.91;101387.01;1717183;80;21148;-87
2022/04/26 15:03:44;;;;;;;;;;;;;;;;;;;;;
2022/04/26 15:06:33;;;;;;;2.60;1.50;;;;;;;12.89;37.83;101393.27;1690419;82;20976;-87
2022/04/26 15:10:02;;;;;;;;;;;;;;;;;;;;;
2022/04/26 15:18:00;;;;;;;3.22;2.00;;;;;;;12.79;38.05;101401.39;1727461;81;22816;-86
2022/04/26 15:20:27;;;;;;;3.45;1.72;;;;;;;12.79;37.85;101397.42;1711188;81;21507;-86
2022/04/26 15:22:54;;;;;;;3.42;1.85;;;;;;;12.80;38.00;101399.63;1727924;81;21183;-87
2022/04/26 15:25:20;;;;;;;3.50;1.70;;;;;;;12.82;38.00;101406.77;1685866;83;21163;-86
2022/04/26 15:27:47;;;;;;;3.58;1.80;;;;;;;12.81;37.68;101414.20;1657694;83;21017;-86
2022/04/26 15:30:14;;;;;;;2.77;2.10;;;;;;;12.76;37.87;101412.30;1675206;83;21801;-86
2022/04/26 15:32:41;;;;;;;2.72;2.20;;;;;;;12.71;38.01;101409.98;1668112;84;21215;-86
2022/04/26 15:35:13;;;;;;;5.97;2.50;;;;;;;12.58;38.17;101409.64;1656643;84;22071;-86
2022/04/26 15:37:42;;;;;;;5.65;2.25;;;;;;;12.47;38.57;101409.77;1678814;83;21798;-87
2022/04/26 15:40:09;;;;;;;2.60;1.95;;;;;;;12.38;38.73;101412.15;1674413;83;21148;-86
2022/04/26 15:42:36;;;;;;;3.92;2.60;;;;;;;12.31;38.91;101420.30;1700688;80;21869;-86
2022/04/26 15:45:04;;;;;;;4.65;2.47;;;;;;;12.29;39.09;101420.69;1750965;80;21068;-86
2022/04/26 15:47:31;;;;;;;3.87;3.02;;;;;;;12.25;39.20;101418.38;1752882;80;21108;-87
2022/04/26 15:49:57;;;;;;;4.75;2.72;;;;;;;12.27;39.34;101422.83;1750847;80;21914;-86